createdAt,value
2023-01-15T00:00:22.530Z,1.30
2023-01-15T00:03:13.212Z,0.90
2023-01-15T00:05:44.235Z,1.10
2023-01-15T00:08:15.723Z,1.30
2023-01-15T00:10:47.200Z,1.20
2023-01-15T00:13:18.398Z,1.30
2023-01-15T00:15:49.804Z,1.20
2023-01-15T00:18:21.345Z,2.20
2023-01-15T00:20:59.614Z,2.20
2023-01-15T00:23:48.649Z,1.80
2023-01-15T00:26:39.589Z,2.30
2023-01-15T00:29:10.599Z,1.70
2023-01-15T00:31:42.429Z,1.20
2023-01-15T00:34:13.585Z,1.30
2023-01-15T00:36:44.683Z,1.10
2023-01-15T00:41:45.521Z,1.00
2023-01-15T00:44:16.801Z,0.70
2023-01-15T00:46:48.464Z,0.90
2023-01-15T00:49:20.165Z,0.90
2023-01-15T00:51:51.464Z,0.60
2023-01-15T00:56:52.674Z,1.00
2023-01-15T00:59:23.832Z,1.00
2023-01-15T01:04:24.443Z,0.90
2023-01-15T01:11:54.906Z,0.60
2023-01-15T01:14:26.145Z,1.10
2023-01-15T01:16:57.052Z,0.90
2023-01-15T01:19:28.254Z,0.90
2023-01-15T01:21:59.527Z,1.00
2023-01-15T01:27:00.130Z,0.90
2023-01-15T01:29:31.089Z,0.80
2023-01-15T01:32:02.147Z,0.90
2023-01-15T01:34:33.761Z,0.90
2023-01-15T01:37:04.788Z,1.40
2023-01-15T01:39:35.803Z,1.60
2023-01-15T01:42:12.062Z,1.60
2023-01-15T01:45:09.139Z,0.80
2023-01-15T01:47:40.383Z,1.60
2023-01-15T01:52:50.585Z,0.70
2023-01-15T01:57:55.197Z,0.80
2023-01-15T02:00:27.052Z,0.50
2023-01-15T02:02:58.487Z,0.80
2023-01-15T02:05:34.051Z,1.00
2023-01-15T02:08:05.883Z,0.50
2023-01-15T02:10:37.304Z,0.70
2023-01-15T02:13:12.484Z,0.70
2023-01-15T02:15:48.646Z,0.90
2023-01-15T02:18:25.276Z,1.10
2023-01-15T02:21:01.052Z,0.70
2023-01-15T02:24:03.140Z,0.70
2023-01-15T02:29:28.533Z,0.70
2023-01-15T02:32:03.367Z,0.50
2023-01-15T02:34:38.206Z,0.40
2023-01-15T02:37:16.185Z,0.60
2023-01-15T02:39:50.079Z,0.80
2023-01-15T02:42:24.278Z,0.70
2023-01-15T02:44:59.620Z,0.70
2023-01-15T02:47:35.863Z,0.70
2023-01-15T02:50:12.311Z,1.10
2023-01-15T02:52:47.005Z,0.60
2023-01-15T02:55:23.058Z,0.50
2023-01-15T02:57:57.917Z,0.70
2023-01-15T03:00:32.073Z,0.70
2023-01-15T03:03:09.369Z,0.90
2023-01-15T03:05:44.879Z,0.80
2023-01-15T03:08:16.286Z,1.00
2023-01-15T03:10:58.384Z,0.90
2023-01-15T03:13:38.556Z,0.70
2023-01-15T03:16:34.617Z,0.80
2023-01-15T03:21:49.848Z,0.70
2023-01-15T03:24:33.326Z,1.20
2023-01-15T03:27:05.048Z,0.90
2023-01-15T03:29:39.224Z,0.80
2023-01-15T03:32:10.837Z,0.70
2023-01-15T03:34:47.110Z,0.80
2023-01-15T03:37:19.118Z,0.80
2023-01-15T03:39:51.022Z,0.60
2023-01-15T03:42:30.512Z,0.70
2023-01-15T03:45:08.261Z,0.70
2023-01-15T03:47:51.460Z,0.60
2023-01-15T03:50:28.714Z,0.50
2023-01-15T03:53:07.792Z,0.60
2023-01-15T03:55:46.443Z,0.60
2023-01-15T03:58:23.099Z,0.80
2023-01-15T04:00:56.689Z,0.60
2023-01-15T04:03:31.743Z,0.50
2023-01-15T04:06:04.780Z,0.40
2023-01-15T04:08:39.662Z,0.50
2023-01-15T04:11:10.778Z,0.50
2023-01-15T04:16:11.431Z,0.50
2023-01-15T04:18:42.598Z,0.60
2023-01-15T04:23:43.070Z,0.70
2023-01-15T04:28:43.604Z,0.60
2023-01-15T04:33:44.337Z,0.60
2023-01-15T04:36:15.571Z,0.70
2023-01-15T04:38:46.835Z,0.70
2023-01-15T04:41:35.400Z,0.70
2023-01-15T04:44:09.474Z,0.70
2023-01-15T04:46:42.241Z,0.50
2023-01-15T04:49:14.911Z,0.60
2023-01-15T04:51:46.827Z,0.50
2023-01-15T04:54:19.672Z,0.60
2023-01-15T04:56:53.118Z,0.90
2023-01-15T04:59:26.479Z,0.40
2023-01-15T05:02:04.231Z,0.30
2023-01-15T05:04:36.632Z,0.30
2023-01-15T05:07:08.197Z,0.30
2023-01-15T05:09:39.256Z,0.80
2023-01-15T05:12:11.392Z,0.50
2023-01-15T05:14:42.391Z,0.40
2023-01-15T05:17:13.659Z,0.50
2023-01-15T05:22:13.963Z,0.30
2023-01-15T05:24:45.453Z,0.40
2023-01-15T05:27:16.629Z,0.50
2023-01-15T05:29:48.091Z,0.70
2023-01-15T05:32:19.066Z,0.50
2023-01-15T05:34:50.359Z,0.30
2023-01-15T05:37:21.224Z,0.40
2023-01-15T05:39:52.956Z,0.40
2023-01-15T05:42:23.888Z,0.40
2023-01-15T05:47:25.090Z,0.50
2023-01-15T05:49:56.189Z,0.70
2023-01-15T05:52:27.344Z,0.60
2023-01-15T05:54:58.335Z,0.40
2023-01-15T05:59:58.677Z,0.60
2023-01-15T06:02:29.776Z,0.80
2023-01-15T06:07:30.431Z,1.50
2023-01-15T06:10:01.562Z,6.40
2023-01-15T06:12:33.507Z,1.90
2023-01-15T06:15:04.589Z,1.70
2023-01-15T06:17:35.574Z,1.30
2023-01-15T06:20:07.501Z,1.40
2023-01-15T06:22:39.000Z,0.80
2023-01-15T06:25:10.698Z,0.80
2023-01-15T06:27:44.547Z,0.40
2023-01-15T06:30:16.950Z,0.30
2023-01-15T06:32:47.994Z,0.40
2023-01-15T06:35:19.344Z,0.70
2023-01-15T06:37:51.983Z,0.40
2023-01-15T06:40:23.971Z,0.50
2023-01-15T06:43:12.327Z,0.40
2023-01-15T06:46:01.276Z,0.40
2023-01-15T06:48:32.468Z,0.40
2023-01-15T06:51:03.730Z,0.40
2023-01-15T06:53:34.818Z,0.30
2023-01-15T06:58:35.536Z,0.50
2023-01-15T07:03:40.879Z,0.30
2023-01-15T07:06:14.437Z,0.50
2023-01-15T07:08:45.651Z,0.80
2023-01-15T07:13:46.469Z,0.60
2023-01-15T07:16:28.872Z,0.40
2023-01-15T07:18:59.968Z,1.40
2023-01-15T07:21:31.178Z,0.90
2023-01-15T07:24:02.738Z,0.50
2023-01-15T07:26:33.878Z,0.70
2023-01-15T07:29:05.532Z,0.70
2023-01-15T07:31:36.604Z,0.40
2023-01-15T07:34:10.365Z,0.70
2023-01-15T07:36:41.986Z,0.90
2023-01-15T07:39:13.927Z,1.10
2023-01-15T07:42:02.355Z,0.60
2023-01-15T07:44:50.797Z,1.10
2023-01-15T07:47:41.727Z,5.80
2023-01-15T07:50:16.284Z,5.60
2023-01-15T07:52:47.765Z,1.60
2023-01-15T07:55:19.046Z,1.50
2023-01-15T07:57:50.194Z,2.70
2023-01-15T08:00:25.425Z,4.80
2023-01-15T08:02:56.530Z,3.40
2023-01-15T08:05:27.599Z,2.80
2023-01-15T08:07:58.747Z,1.50
2023-01-15T08:15:47.216Z,4.20
2023-01-15T08:18:18.300Z,3.00
2023-01-15T08:23:19.155Z,3.00
2023-01-15T08:25:50.361Z,3.70
2023-01-15T08:28:21.431Z,7.00
2023-01-15T08:33:22.254Z,4.50
2023-01-15T08:35:54.144Z,5.00
2023-01-15T08:38:25.305Z,4.20
2023-01-15T08:41:00.561Z,36.90
2023-01-15T08:43:33.697Z,7.60
2023-01-15T08:46:07.177Z,10.50
2023-01-15T08:48:38.532Z,11.00
2023-01-15T08:51:10.998Z,8.70
2023-01-15T08:53:42.312Z,10.70
2023-01-15T08:56:16.844Z,11.50
2023-01-15T08:58:48.872Z,20.90
2023-01-15T09:01:20.080Z,6.40
2023-01-15T09:03:52.098Z,4.60
2023-01-15T09:08:52.711Z,4.40
2023-01-15T09:13:54.521Z,4.00
2023-01-15T09:16:26.816Z,3.50
2023-01-15T09:18:57.949Z,4.30
2023-01-15T09:21:28.919Z,5.00
2023-01-15T09:26:34.417Z,3.40
2023-01-15T09:29:06.516Z,5.20
2023-01-15T09:31:37.655Z,8.70
2023-01-15T09:34:08.758Z,5.30
2023-01-15T09:36:41.400Z,17.00
2023-01-15T09:39:12.560Z,10.50
2023-01-15T09:42:08.240Z,7.40
2023-01-15T09:44:54.339Z,4.30
2023-01-15T09:47:31.999Z,3.50
2023-01-15T09:50:17.195Z,4.20
2023-01-15T09:53:01.753Z,6.40
2023-01-15T09:55:35.699Z,4.00
2023-01-15T09:58:07.664Z,6.80
2023-01-15T10:00:42.203Z,6.00
2023-01-15T10:03:32.763Z,4.80
2023-01-15T10:06:13.943Z,6.30
2023-01-15T10:08:47.944Z,6.60
2023-01-15T10:11:50.542Z,6.60
2023-01-15T10:14:39.566Z,5.10
2023-01-15T10:17:23.262Z,5.60
2023-01-15T10:19:55.635Z,5.80
2023-01-15T10:22:38.245Z,7.60
2023-01-15T10:25:16.563Z,5.40
2023-01-15T10:27:52.193Z,6.30
2023-01-15T10:30:37.528Z,5.60
2023-01-15T10:33:21.963Z,11.20
2023-01-15T10:35:59.662Z,6.10
2023-01-15T10:38:36.375Z,5.90
2023-01-15T10:41:32.154Z,14.20
2023-01-15T10:44:13.035Z,24.30
2023-01-15T10:46:48.256Z,8.10
2023-01-15T10:49:20.341Z,7.80
2023-01-15T10:51:55.470Z,19.40
2023-01-15T10:54:33.112Z,15.80
2023-01-15T10:57:11.541Z,25.00
2023-01-15T10:59:50.662Z,9.80
2023-01-15T11:02:31.565Z,10.00
2023-01-15T11:05:04.850Z,10.70
2023-01-15T11:08:02.954Z,6.80
2023-01-15T11:10:33.403Z,9.40
2023-01-15T11:13:39.681Z,5.70
2023-01-15T11:16:35.769Z,8.70
2023-01-15T11:19:26.150Z,11.50
2023-01-15T11:21:57.432Z,9.60
2023-01-15T11:24:28.928Z,6.40
2023-01-15T11:27:00.208Z,5.50
2023-01-15T11:32:03.617Z,4.60
2023-01-15T11:34:36.879Z,5.80
2023-01-15T11:37:08.588Z,6.90
2023-01-15T11:39:39.532Z,8.60
2023-01-15T11:42:36.891Z,4.00
2023-01-15T11:45:35.300Z,5.60
2023-01-15T11:48:35.024Z,5.60
2023-01-15T11:51:11.619Z,7.60
2023-01-15T11:53:47.200Z,8.10
2023-01-15T11:56:20.414Z,8.40
2023-01-15T11:58:54.415Z,7.30
2023-01-15T12:01:29.201Z,8.80
2023-01-15T12:04:02.108Z,7.80
2023-01-15T12:06:37.737Z,5.80
2023-01-15T12:09:25.927Z,7.60
2023-01-15T12:12:08.758Z,5.20
2023-01-15T12:14:59.539Z,6.90
2023-01-15T12:17:48.593Z,8.10
2023-01-15T12:20:28.201Z,6.40
2023-01-15T12:23:16.117Z,6.20
2023-01-15T12:25:58.752Z,5.60
2023-01-15T12:28:32.791Z,5.40
2023-01-15T12:31:09.760Z,5.50
2023-01-15T12:33:47.797Z,7.50
2023-01-15T12:36:23.016Z,11.80
2023-01-15T12:38:59.518Z,13.30
2023-01-15T12:41:48.702Z,18.70
2023-01-15T12:44:43.336Z,13.20
2023-01-15T12:47:20.071Z,7.80
2023-01-15T12:49:58.894Z,10.30
2023-01-15T12:52:44.289Z,12.40
2023-01-15T12:55:27.007Z,10.00
2023-01-15T12:58:01.530Z,16.50
2023-01-15T13:00:36.943Z,13.30
2023-01-15T13:03:24.019Z,6.40
2023-01-15T13:06:00.446Z,4.90
2023-01-15T13:08:35.076Z,6.00
2023-01-15T13:11:07.812Z,5.70
2023-01-15T13:13:41.939Z,5.80
2023-01-15T13:16:19.465Z,6.20
2023-01-15T13:19:05.228Z,10.80
2023-01-15T13:21:38.031Z,7.50
2023-01-15T13:24:35.489Z,6.40
2023-01-15T13:27:23.587Z,10.50
2023-01-15T13:30:09.583Z,7.40
2023-01-15T13:32:46.668Z,8.20
2023-01-15T13:35:28.931Z,9.50
2023-01-15T13:38:02.193Z,20.40
2023-01-15T13:40:35.566Z,15.00
2023-01-15T13:43:09.052Z,4.80
2023-01-15T13:45:42.258Z,4.30
2023-01-15T13:48:18.153Z,2.40
2023-01-15T13:50:58.941Z,3.60
2023-01-15T13:53:33.993Z,2.50
2023-01-15T13:56:09.042Z,6.30
2023-01-15T13:58:53.444Z,2.30
2023-01-15T14:01:34.138Z,5.90
2023-01-15T14:04:09.158Z,12.50
2023-01-15T14:06:46.105Z,2.90
2023-01-15T14:09:32.018Z,3.80
2023-01-15T14:12:19.905Z,2.00
2023-01-15T14:15:06.557Z,4.10
2023-01-15T14:18:00.724Z,2.30
2023-01-15T14:20:45.641Z,5.60
2023-01-15T14:23:36.439Z,6.20
2023-01-15T14:26:17.551Z,2.70
2023-01-15T14:29:03.482Z,4.50
2023-01-15T14:31:44.529Z,11.40
2023-01-15T14:34:19.108Z,9.50
2023-01-15T14:36:54.231Z,8.40
2023-01-15T14:39:33.682Z,3.30
2023-01-15T14:42:29.031Z,8.30
2023-01-15T14:45:07.601Z,11.40
2023-01-15T14:47:47.538Z,8.30
2023-01-15T14:50:33.677Z,13.60
2023-01-15T14:53:32.933Z,9.10
2023-01-15T14:56:14.276Z,6.80
2023-01-15T14:58:54.235Z,3.10
2023-01-15T15:01:43.113Z,2.40
2023-01-15T15:04:23.588Z,3.90
2023-01-15T15:06:58.424Z,9.80
2023-01-15T15:09:35.982Z,9.90
2023-01-15T15:12:26.851Z,6.40
2023-01-15T15:15:04.756Z,6.00
2023-01-15T15:17:44.850Z,7.00
2023-01-15T15:20:31.595Z,3.90
2023-01-15T15:23:11.485Z,2.20
2023-01-15T15:25:43.349Z,1.60
2023-01-15T15:28:14.649Z,2.50
2023-01-15T15:30:47.623Z,4.50
2023-01-15T15:33:22.720Z,2.00
2023-01-15T15:35:57.318Z,2.00
2023-01-15T15:38:29.041Z,1.80
2023-01-15T15:41:02.990Z,1.40
2023-01-15T15:44:01.593Z,2.00
2023-01-15T15:46:52.094Z,5.90
2023-01-15T15:49:23.203Z,3.60
2023-01-15T15:51:55.433Z,4.40
2023-01-15T15:54:28.416Z,2.00
2023-01-15T15:57:03.792Z,1.10
2023-01-15T15:59:37.878Z,3.00
2023-01-15T16:02:19.508Z,1.70
2023-01-15T16:04:55.350Z,6.80
2023-01-15T16:07:29.705Z,2.80
2023-01-15T16:10:04.150Z,2.70
2023-01-15T16:12:40.371Z,1.50
2023-01-15T16:15:18.151Z,1.90
2023-01-15T16:17:50.772Z,2.70
2023-01-15T16:20:23.161Z,1.70
2023-01-15T16:22:58.058Z,2.20
2023-01-15T16:25:32.726Z,2.70
2023-01-15T16:28:05.208Z,3.10
2023-01-15T16:30:36.767Z,8.10
2023-01-15T16:33:09.332Z,3.50
2023-01-15T16:35:40.588Z,9.50
2023-01-15T16:38:21.250Z,7.40
2023-01-15T16:40:52.435Z,5.90
2023-01-15T16:43:26.404Z,11.20
2023-01-15T16:46:17.121Z,13.00
2023-01-15T16:48:49.772Z,7.40
2023-01-15T16:51:33.308Z,6.00
2023-01-15T16:54:05.573Z,9.90
2023-01-15T16:56:58.196Z,9.70
2023-01-15T17:00:03.261Z,6.00
2023-01-15T17:02:44.195Z,2.20
2023-01-15T17:05:23.074Z,2.40
2023-01-15T17:07:56.147Z,2.20
2023-01-15T17:10:31.421Z,3.20
2023-01-15T17:13:02.618Z,2.90
2023-01-15T17:15:43.525Z,2.80
2023-01-15T17:18:31.614Z,5.80
2023-01-15T17:21:03.602Z,5.00
2023-01-15T17:23:38.050Z,1.90
2023-01-15T17:26:15.380Z,2.00
2023-01-15T17:28:46.857Z,1.50
2023-01-15T17:31:26.900Z,4.20
2023-01-15T17:33:59.145Z,2.50
2023-01-15T17:36:31.211Z,4.10
2023-01-15T17:39:02.469Z,5.40
2023-01-15T17:44:04.096Z,4.00
2023-01-15T17:46:35.360Z,10.00
2023-01-15T17:49:06.569Z,5.70
2023-01-15T17:51:37.665Z,4.90
2023-01-15T17:54:08.754Z,2.50
2023-01-15T17:59:49.783Z,1.70
2023-01-15T18:02:39.193Z,4.80
2023-01-15T18:05:27.323Z,2.60
2023-01-15T18:08:00.891Z,4.20
2023-01-15T18:10:32.343Z,2.50
2023-01-15T18:13:03.869Z,1.60
2023-01-15T18:15:34.967Z,3.20
2023-01-15T18:20:35.925Z,2.40
2023-01-15T18:23:06.875Z,4.10
2023-01-15T18:25:39.520Z,7.90
2023-01-15T18:28:10.647Z,8.10
2023-01-15T18:30:41.540Z,7.10
2023-01-15T18:33:12.548Z,5.20
2023-01-15T18:35:43.594Z,8.20
2023-01-15T18:38:14.429Z,8.40
2023-01-15T18:40:45.474Z,6.40
2023-01-15T18:43:34.387Z,9.20
2023-01-15T18:46:31.125Z,8.30
2023-01-15T18:49:02.443Z,3.00
2023-01-15T18:54:02.973Z,5.00
2023-01-15T18:56:40.398Z,4.40
2023-01-15T18:59:12.135Z,12.30
2023-01-15T19:01:44.241Z,8.00
2023-01-15T19:04:15.720Z,5.50
2023-01-15T19:09:16.904Z,6.20
2023-01-15T19:11:48.601Z,4.40
2023-01-15T19:14:37.439Z,5.10
2023-01-15T19:17:29.976Z,4.20
2023-01-15T19:20:01.093Z,3.90
2023-01-15T19:22:49.621Z,2.50
2023-01-15T19:25:23.305Z,3.60
2023-01-15T19:27:55.296Z,2.70
2023-01-15T19:30:27.680Z,4.00
2023-01-15T19:32:59.281Z,3.40
2023-01-15T19:35:30.291Z,4.20
2023-01-15T19:40:36.355Z,3.10
2023-01-15T19:43:25.259Z,3.60
2023-01-15T19:46:10.315Z,1.40
2023-01-15T19:48:58.953Z,3.30
2023-01-15T19:52:01.205Z,2.90
2023-01-15T19:54:49.876Z,3.80
2023-01-15T19:57:21.683Z,1.10
2023-01-15T19:59:53.154Z,4.10
2023-01-15T20:02:24.390Z,5.00
2023-01-15T20:04:55.408Z,3.30
2023-01-15T20:07:26.428Z,8.10
2023-01-15T20:12:44.542Z,2.60
2023-01-15T20:15:15.904Z,1.70
2023-01-15T20:20:16.341Z,3.40
2023-01-15T20:22:47.864Z,3.10
2023-01-15T20:25:19.461Z,1.20
2023-01-15T20:27:50.490Z,1.40
2023-01-15T20:30:23.343Z,1.00
2023-01-15T20:32:56.377Z,1.20
2023-01-15T20:35:31.348Z,0.90
2023-01-15T20:38:02.634Z,1.50
2023-01-15T20:40:33.853Z,1.20
2023-01-15T20:45:52.661Z,1.20
2023-01-15T20:48:41.479Z,3.10
2023-01-15T20:51:18.223Z,13.10
2023-01-15T20:53:51.589Z,13.10
2023-01-15T20:56:23.332Z,5.50
2023-01-15T20:58:56.890Z,3.80
2023-01-15T21:01:28.698Z,1.80
2023-01-15T21:03:59.966Z,2.40
2023-01-15T21:06:31.397Z,1.30
2023-01-15T21:11:32.367Z,0.70
2023-01-15T21:14:03.562Z,2.00
2023-01-15T21:16:34.588Z,1.60
2023-01-15T21:21:36.019Z,6.80
2023-01-15T21:24:07.865Z,37.40
2023-01-15T21:26:39.439Z,3.90
2023-01-15T21:29:10.677Z,8.30
2023-01-15T21:31:41.818Z,4.30
2023-01-15T21:34:13.312Z,5.20
2023-01-15T21:39:16.286Z,5.90
2023-01-15T21:42:06.893Z,5.00
2023-01-15T21:44:43.370Z,2.60
2023-01-15T21:47:16.375Z,1.60
2023-01-15T21:49:47.475Z,1.30
2023-01-15T21:52:20.765Z,1.10
2023-01-15T21:54:52.535Z,1.20
2023-01-15T21:57:23.682Z,2.10
2023-01-15T21:59:54.929Z,1.10
2023-01-15T22:02:27.957Z,1.00
2023-01-15T22:04:59.101Z,1.10
2023-01-15T22:07:30.308Z,1.00
2023-01-15T22:10:01.737Z,1.00
2023-01-15T22:12:37.408Z,0.80
2023-01-15T22:15:10.093Z,1.00
2023-01-15T22:17:41.115Z,1.00
2023-01-15T22:20:13.781Z,2.30
2023-01-15T22:22:44.844Z,1.70
2023-01-15T22:27:47.232Z,2.50
2023-01-15T22:30:18.730Z,3.00
2023-01-15T22:32:51.462Z,1.30
2023-01-15T22:35:22.807Z,1.10
2023-01-15T22:37:53.889Z,1.10
2023-01-15T22:40:24.890Z,1.50
2023-01-15T22:42:55.863Z,1.60
2023-01-15T22:47:56.817Z,2.30
2023-01-15T22:52:57.250Z,1.30
2023-01-15T22:55:28.227Z,1.30
2023-01-15T22:57:59.645Z,1.20
2023-01-15T23:00:30.693Z,1.20
2023-01-15T23:03:05.925Z,1.20
2023-01-15T23:05:39.535Z,1.10
2023-01-15T23:08:10.530Z,1.20
2023-01-15T23:10:45.987Z,2.20
2023-01-15T23:13:17.255Z,1.20
2023-01-15T23:15:56.907Z,1.00
2023-01-15T23:18:30.509Z,1.10
2023-01-15T23:21:05.481Z,1.00
2023-01-15T23:23:37.062Z,0.90
2023-01-15T23:26:09.381Z,1.00
2023-01-15T23:28:40.513Z,2.40
2023-01-15T23:31:12.036Z,1.70
2023-01-15T23:33:42.999Z,2.60
2023-01-15T23:36:14.443Z,4.20
2023-01-15T23:38:47.998Z,3.60
2023-01-15T23:41:40.964Z,4.10
2023-01-15T23:44:29.471Z,4.30
2023-01-15T23:47:00.465Z,4.40
2023-01-15T23:49:31.687Z,2.80
2023-01-15T23:52:03.024Z,3.10
2023-01-15T23:54:34.344Z,3.00
2023-01-15T23:57:08.014Z,2.40
2023-01-15T23:59:39.048Z,2.00
